sensor_id;sensor_type;location;lat;lon;timestamp;pressure;altitude;pressure_sealevel;temperature;humidity
51227;BME280;42714;48.260;10.980;2023-05-23T00:00:16;967.5;;;16.0;100.0
51227;BME280;42714;48.260;10.980;2023-05-23T00:05:17;967.5;;;15.9;100.0
51227;BME280;42714;48.260;10.980;2023-05-23T00:10:18;967.5;;;15.8;100.0
51227;BME280;42714;48.260;10.980;2023-05-23T00:15:19;967.5;;;15.8;100.0
51227;BME280;42714;48.260;10.980;2023-05-23T00:20:20;967.5;;;15.8;100.0
51227;BME280;42714;48.260;10.980;2023-05-23T00:25:21;967.5;;;15.8;100.0
51227;BME280;42714;48.260;10.980;2023-05-23T00:30:22;967.5;;;15.8;100.0
51227;BME280;42714;48.260;10.980;2023-05-23T00:35:23;967.5;;;15.7;100.0
51227;BME280;42714;48.260;10.980;2023-05-23T00:40:24;967.5;;;15.6;100.0
51227;BME280;42714;48.260;10.980;2023-05-23T00:45:26;967.5;;;15.6;100.0
51227;BME280;42714;48.260;10.980;2023-05-23T00:50:26;967.6;;;15.6;100.0
51227;BME280;42714;48.260;10.980;2023-05-23T00:55:27;967.7;;;15.5;100.0
51227;BME280;42714;48.260;10.980;2023-05-23T01:00:28;967.7;;;15.5;100.0
51227;BME280;42714;48.260;10.980;2023-05-23T01:05:29;967.7;;;15.5;100.0
51227;BME280;42714;48.260;10.980;2023-05-23T01:10:30;967.8;;;15.4;100.0
51227;BME280;42714;48.260;10.980;2023-05-23T01:15:43;967.8;;;15.2;100.0
51227;BME280;42714;48.260;10.980;2023-05-23T01:20:37;967.7;;;15.1;100.0
51227;BME280;42714;48.260;10.980;2023-05-23T01:25:38;967.7;;;15.1;100.0
51227;BME280;42714;48.260;10.980;2023-05-23T01:30:34;967.7;;;15.1;100.0
51227;BME280;42714;48.260;10.980;2023-05-23T01:35:35;967.7;;;15.0;100.0
51227;BME280;42714;48.260;10.980;2023-05-23T01:40:36;967.7;;;14.9;100.0
51227;BME280;42714;48.260;10.980;2023-05-23T01:45:37;967.8;;;14.9;100.0
51227;BME280;42714;48.260;10.980;2023-05-23T01:50:38;967.8;;;14.9;100.0
51227;BME280;42714;48.260;10.980;2023-05-23T01:55:39;967.8;;;14.9;100.0
51227;BME280;42714;48.260;10.980;2023-05-23T02:00:40;967.8;;;14.9;100.0
51227;BME280;42714;48.260;10.980;2023-05-23T02:05:41;967.8;;;14.9;100.0
51227;BME280;42714;48.260;10.980;2023-05-23T02:10:42;967.8;;;15.0;100.0
51227;BME280;42714;48.260;10.980;2023-05-23T02:15:43;967.8;;;14.8;100.0
51227;BME280;42714;48.260;10.980;2023-05-23T02:20:44;967.9;;;14.8;100.0
51227;BME280;42714;48.260;10.980;2023-05-23T02:25:45;967.9;;;14.7;100.0
51227;BME280;42714;48.260;10.980;2023-05-23T02:30:46;967.9;;;14.8;100.0
51227;BME280;42714;48.260;10.980;2023-05-23T02:35:47;967.9;;;14.8;100.0
51227;BME280;42714;48.260;10.980;2023-05-23T02:40:48;968.0;;;14.8;100.0
51227;BME280;42714;48.260;10.980;2023-05-23T02:45:49;968.1;;;14.8;100.0
51227;BME280;42714;48.260;10.980;2023-05-23T02:50:50;968.1;;;14.8;100.0
51227;BME280;42714;48.260;10.980;2023-05-23T02:55:51;968.2;;;14.8;100.0
51227;BME280;42714;48.260;10.980;2023-05-23T03:00:52;968.3;;;14.8;100.0
51227;BME280;42714;48.260;10.980;2023-05-23T03:05:53;968.3;;;14.8;100.0
51227;BME280;42714;48.260;10.980;2023-05-23T03:10:54;968.3;;;14.8;100.0
51227;BME280;42714;48.260;10.980;2023-05-23T03:15:55;968.2;;;14.8;100.0
51227;BME280;42714;48.260;10.980;2023-05-23T03:20:56;968.2;;;14.8;100.0
51227;BME280;42714;48.260;10.980;2023-05-23T03:25:57;968.2;;;14.7;100.0
51227;BME280;42714;48.260;10.980;2023-05-23T03:30:58;968.2;;;14.6;100.0
51227;BME280;42714;48.260;10.980;2023-05-23T03:35:59;968.2;;;14.6;100.0
51227;BME280;42714;48.260;10.980;2023-05-23T03:41:00;968.2;;;14.5;100.0
51227;BME280;42714;48.260;10.980;2023-05-23T03:46:01;968.2;;;14.4;100.0
51227;BME280;42714;48.260;10.980;2023-05-23T03:51:02;968.3;;;14.4;100.0
51227;BME280;42714;48.260;10.980;2023-05-23T03:56:03;968.3;;;14.3;100.0
51227;BME280;42714;48.260;10.980;2023-05-23T04:01:04;968.3;;;14.3;100.0
51227;BME280;42714;48.260;10.980;2023-05-23T04:06:05;968.3;;;14.3;100.0
51227;BME280;42714;48.260;10.980;2023-05-23T04:11:06;968.3;;;14.2;100.0
51227;BME280;42714;48.260;10.980;2023-05-23T04:16:07;968.3;;;14.3;100.0
51227;BME280;42714;48.260;10.980;2023-05-23T04:21:08;968.4;;;14.3;100.0
51227;BME280;42714;48.260;10.980;2023-05-23T04:26:09;968.4;;;14.4;100.0
51227;BME280;42714;48.260;10.980;2023-05-23T04:31:10;968.4;;;14.5;100.0
51227;BME280;42714;48.260;10.980;2023-05-23T04:36:11;968.5;;;14.7;100.0
51227;BME280;42714;48.260;10.980;2023-05-23T04:41:12;968.5;;;14.8;100.0
51227;BME280;42714;48.260;10.980;2023-05-23T04:46:13;968.5;;;15.0;100.0
51227;BME280;42714;48.260;10.980;2023-05-23T04:51:14;968.5;;;15.3;100.0
51227;BME280;42714;48.260;10.980;2023-05-23T04:56:15;968.5;;;15.5;100.0
51227;BME280;42714;48.260;10.980;2023-05-23T05:01:16;968.6;;;15.8;100.0
51227;BME280;42714;48.260;10.980;2023-05-23T05:06:17;968.7;;;16.2;100.0
51227;BME280;42714;48.260;10.980;2023-05-23T05:11:18;968.7;;;16.8;100.0
51227;BME280;42714;48.260;10.980;2023-05-23T05:16:19;968.8;;;17.2;100.0
51227;BME280;42714;48.260;10.980;2023-05-23T05:21:20;968.8;;;17.3;100.0
51227;BME280;42714;48.260;10.980;2023-05-23T05:26:21;968.9;;;17.5;100.0
51227;BME280;42714;48.260;10.980;2023-05-23T05:31:22;968.9;;;17.6;100.0
51227;BME280;42714;48.260;10.980;2023-05-23T05:36:23;968.8;;;17.7;100.0
51227;BME280;42714;48.260;10.980;2023-05-23T05:41:24;968.8;;;17.8;100.0
51227;BME280;42714;48.260;10.980;2023-05-23T05:46:25;968.8;;;18.0;100.0
51227;BME280;42714;48.260;10.980;2023-05-23T05:51:26;968.8;;;18.5;100.0
51227;BME280;42714;48.260;10.980;2023-05-23T05:56:27;968.8;;;19.0;100.0
51227;BME280;42714;48.260;10.980;2023-05-23T06:01:28;968.7;;;19.6;100.0
51227;BME280;42714;48.260;10.980;2023-05-23T06:06:29;968.8;;;20.3;100.0
51227;BME280;42714;48.260;10.980;2023-05-23T06:11:30;968.8;;;20.8;100.0
51227;BME280;42714;48.260;10.980;2023-05-23T06:16:31;968.9;;;21.2;100.0
51227;BME280;42714;48.260;10.980;2023-05-23T06:21:32;968.9;;;21.4;100.0
51227;BME280;42714;48.260;10.980;2023-05-23T06:26:33;969.0;;;21.5;100.0
51227;BME280;42714;48.260;10.980;2023-05-23T06:31:34;969.0;;;21.7;100.0
51227;BME280;42714;48.260;10.980;2023-05-23T06:36:35;969.1;;;21.7;100.0
51227;BME280;42714;48.260;10.980;2023-05-23T06:41:37;969.1;;;21.6;100.0
51227;BME280;42714;48.260;10.980;2023-05-23T06:46:37;969.2;;;21.6;100.0
51227;BME280;42714;48.260;10.980;2023-05-23T06:51:38;969.2;;;21.6;100.0
51227;BME280;42714;48.260;10.980;2023-05-23T06:56:39;969.2;;;21.3;100.0
51227;BME280;42714;48.260;10.980;2023-05-23T07:01:40;969.2;;;21.1;100.0
51227;BME280;42714;48.260;10.980;2023-05-23T07:06:41;969.2;;;21.0;100.0
51227;BME280;42714;48.260;10.980;2023-05-23T07:11:42;969.2;;;21.3;100.0
51227;BME280;42714;48.260;10.980;2023-05-23T07:16:43;969.3;;;21.4;100.0
51227;BME280;42714;48.260;10.980;2023-05-23T07:21:44;969.3;;;21.3;100.0
51227;BME280;42714;48.260;10.980;2023-05-23T07:26:45;969.3;;;21.1;100.0
51227;BME280;42714;48.260;10.980;2023-05-23T07:31:46;969.2;;;21.1;100.0
51227;BME280;42714;48.260;10.980;2023-05-23T07:36:47;969.3;;;21.1;100.0
51227;BME280;42714;48.260;10.980;2023-05-23T07:41:48;969.2;;;21.2;100.0
51227;BME280;42714;48.260;10.980;2023-05-23T07:46:49;969.2;;;21.4;100.0
51227;BME280;42714;48.260;10.980;2023-05-23T07:51:50;969.3;;;21.4;100.0
51227;BME280;42714;48.260;10.980;2023-05-23T07:56:54;969.3;;;21.5;100.0
51227;BME280;42714;48.260;10.980;2023-05-23T08:01:52;969.3;;;21.6;100.0
51227;BME280;42714;48.260;10.980;2023-05-23T08:06:53;969.3;;;21.6;100.0
51227;BME280;42714;48.260;10.980;2023-05-23T08:11:54;969.3;;;21.7;100.0
51227;BME280;42714;48.260;10.980;2023-05-23T08:16:55;969.3;;;21.7;100.0
51227;BME280;42714;48.260;10.980;2023-05-23T08:21:56;969.3;;;21.6;100.0
51227;BME280;42714;48.260;10.980;2023-05-23T08:26:57;969.3;;;21.6;100.0
51227;BME280;42714;48.260;10.980;2023-05-23T08:31:58;969.3;;;22.3;100.0
51227;BME280;42714;48.260;10.980;2023-05-23T08:36:59;969.3;;;22.9;100.0
51227;BME280;42714;48.260;10.980;2023-05-23T08:42:00;969.3;;;23.4;100.0
51227;BME280;42714;48.260;10.980;2023-05-23T08:47:02;969.3;;;24.0;100.0
51227;BME280;42714;48.260;10.980;2023-05-23T08:52:02;969.4;;;23.6;100.0
51227;BME280;42714;48.260;10.980;2023-05-23T08:57:03;969.4;;;23.4;100.0
51227;BME280;42714;48.260;10.980;2023-05-23T09:02:05;969.5;;;22.9;100.0
51227;BME280;42714;48.260;10.980;2023-05-23T09:07:05;969.5;;;22.4;100.0
51227;BME280;42714;48.260;10.980;2023-05-23T09:12:06;969.6;;;22.5;100.0
51227;BME280;42714;48.260;10.980;2023-05-23T09:17:07;969.5;;;23.5;100.0
51227;BME280;42714;48.260;10.980;2023-05-23T09:22:08;969.6;;;23.8;100.0
51227;BME280;42714;48.260;10.980;2023-05-23T09:27:09;969.6;;;23.2;100.0
51227;BME280;42714;48.260;10.980;2023-05-23T09:32:11;969.7;;;22.2;100.0
51227;BME280;42714;48.260;10.980;2023-05-23T09:37:11;969.7;;;22.2;100.0
51227;BME280;42714;48.260;10.980;2023-05-23T09:42:17;969.8;;;22.3;100.0
51227;BME280;42714;48.260;10.980;2023-05-23T09:47:16;969.8;;;22.1;100.0
51227;BME280;42714;48.260;10.980;2023-05-23T09:52:14;969.8;;;21.6;100.0
51227;BME280;42714;48.260;10.980;2023-05-23T09:57:15;969.8;;;21.7;100.0
51227;BME280;42714;48.260;10.980;2023-05-23T10:02:16;969.7;;;22.3;100.0
51227;BME280;42714;48.260;10.980;2023-05-23T10:07:18;969.6;;;23.6;100.0
51227;BME280;42714;48.260;10.980;2023-05-23T10:12:27;969.6;;;24.7;94.7
51227;BME280;42714;48.260;10.980;2023-05-23T10:17:20;969.5;;;25.6;80.2
51227;BME280;42714;48.260;10.980;2023-05-23T10:22:20;969.4;;;26.5;70.9
51227;BME280;42714;48.260;10.980;2023-05-23T10:27:21;969.3;;;26.6;71.1
51227;BME280;42714;48.260;10.980;2023-05-23T10:32:22;969.2;;;28.1;59.0
51227;BME280;42714;48.260;10.980;2023-05-23T10:37:26;969.1;;;29.6;53.3
51227;BME280;42714;48.260;10.980;2023-05-23T10:47:25;968.9;;;32.2;40.4
51227;BME280;42714;48.260;10.980;2023-05-23T10:52:26;969.0;;;32.2;38.6
51227;BME280;42714;48.260;10.980;2023-05-23T10:57:27;969.0;;;30.9;43.2
51227;BME280;42714;48.260;10.980;2023-05-23T11:02:28;969.0;;;31.8;40.3
51227;BME280;42714;48.260;10.980;2023-05-23T11:07:32;969.1;;;31.3;40.8
51227;BME280;42714;48.260;10.980;2023-05-23T11:17:31;969.0;;;31.8;38.6
51227;BME280;42714;48.260;10.980;2023-05-23T11:22:33;969.0;;;31.0;40.9
51227;BME280;42714;48.260;10.980;2023-05-23T11:27:34;969.0;;;29.8;41.5
51227;BME280;42714;48.260;10.980;2023-05-23T11:32:34;969.0;;;29.5;42.7
51227;BME280;42714;48.260;10.980;2023-05-23T11:37:37;968.9;;;28.8;43.3
51227;BME280;42714;48.260;10.980;2023-05-23T11:42:40;968.9;;;28.6;45.9
51227;BME280;42714;48.260;10.980;2023-05-23T11:47:41;968.8;;;29.6;41.9
51227;BME280;42714;48.260;10.980;2023-05-23T11:52:38;968.8;;;28.5;46.9
51227;BME280;42714;48.260;10.980;2023-05-23T11:57:39;968.8;;;26.8;56.5
51227;BME280;42714;48.260;10.980;2023-05-23T12:02:41;968.8;;;25.8;65.4
51227;BME280;42714;48.260;10.980;2023-05-23T12:07:42;968.9;;;26.0;59.0
51227;BME280;42714;48.260;10.980;2023-05-23T12:12:42;969.0;;;26.1;62.0
51227;BME280;42714;48.260;10.980;2023-05-23T12:17:44;968.9;;;27.2;58.2
51227;BME280;42714;48.260;10.980;2023-05-23T12:22:44;968.8;;;28.1;51.8
51227;BME280;42714;48.260;10.980;2023-05-23T12:27:45;968.9;;;28.4;48.9
51227;BME280;42714;48.260;10.980;2023-05-23T12:32:46;969.0;;;27.6;52.5
51227;BME280;42714;48.260;10.980;2023-05-23T12:37:47;969.0;;;27.9;52.1
51227;BME280;42714;48.260;10.980;2023-05-23T12:42:49;969.0;;;30.4;44.2
51227;BME280;42714;48.260;10.980;2023-05-23T12:47:49;968.8;;;33.8;34.9
51227;BME280;42714;48.260;10.980;2023-05-23T12:52:50;968.8;;;34.5;32.1
51227;BME280;42714;48.260;10.980;2023-05-23T12:57:51;969.0;;;30.8;37.3
51227;BME280;42714;48.260;10.980;2023-05-23T13:02:52;969.1;;;27.8;45.4
51227;BME280;42714;48.260;10.980;2023-05-23T13:07:53;969.2;;;26.5;53.0
51227;BME280;42714;48.260;10.980;2023-05-23T13:12:54;969.1;;;26.5;53.3
51227;BME280;42714;48.260;10.980;2023-05-23T13:17:55;969.1;;;27.5;50.6
51227;BME280;42714;48.260;10.980;2023-05-23T13:22:56;969.0;;;28.4;46.7
51227;BME280;42714;48.260;10.980;2023-05-23T13:27:57;968.9;;;29.4;43.7
51227;BME280;42714;48.260;10.980;2023-05-23T13:32:58;968.9;;;28.5;44.1
51227;BME280;42714;48.260;10.980;2023-05-23T13:37:59;969.0;;;26.3;52.9
51227;BME280;42714;48.260;10.980;2023-05-23T13:43:00;969.0;;;24.9;63.1
51227;BME280;42714;48.260;10.980;2023-05-23T13:48:01;969.0;;;24.2;71.0
51227;BME280;42714;48.260;10.980;2023-05-23T13:53:02;969.0;;;24.1;74.7
51227;BME280;42714;48.260;10.980;2023-05-23T13:58:03;969.0;;;24.8;70.3
51227;BME280;42714;48.260;10.980;2023-05-23T14:03:05;968.9;;;26.0;59.6
51227;BME280;42714;48.260;10.980;2023-05-23T14:08:05;968.9;;;26.1;57.3
51227;BME280;42714;48.260;10.980;2023-05-23T14:13:06;968.9;;;25.9;57.0
51227;BME280;42714;48.260;10.980;2023-05-23T14:18:07;968.8;;;25.6;61.0
51227;BME280;42714;48.260;10.980;2023-05-23T14:23:08;968.9;;;25.9;59.2
51227;BME280;42714;48.260;10.980;2023-05-23T14:28:09;969.0;;;25.5;56.2
51227;BME280;42714;48.260;10.980;2023-05-23T14:33:10;969.0;;;24.9;60.0
51227;BME280;42714;48.260;10.980;2023-05-23T14:38:11;969.0;;;24.6;63.0
51227;BME280;42714;48.260;10.980;2023-05-23T14:43:13;969.1;;;24.5;65.3
51227;BME280;42714;48.260;10.980;2023-05-23T14:48:13;969.1;;;24.8;60.1
51227;BME280;42714;48.260;10.980;2023-05-23T14:53:14;969.1;;;25.1;58.2
51227;BME280;42714;48.260;10.980;2023-05-23T14:58:15;969.2;;;25.1;54.9
51227;BME280;42714;48.260;10.980;2023-05-23T15:03:16;969.2;;;24.9;56.4
51227;BME280;42714;48.260;10.980;2023-05-23T15:08:17;969.3;;;24.3;57.8
51227;BME280;42714;48.260;10.980;2023-05-23T15:13:18;969.3;;;24.1;59.1
51227;BME280;42714;48.260;10.980;2023-05-23T15:18:19;969.2;;;23.9;58.2
51227;BME280;42714;48.260;10.980;2023-05-23T15:23:20;969.2;;;24.0;58.0
51227;BME280;42714;48.260;10.980;2023-05-23T15:28:21;969.2;;;24.1;54.4
51227;BME280;42714;48.260;10.980;2023-05-23T15:33:22;969.1;;;23.7;56.3
51227;BME280;42714;48.260;10.980;2023-05-23T15:38:24;969.1;;;23.5;58.6
51227;BME280;42714;48.260;10.980;2023-05-23T15:43:24;969.2;;;22.9;59.8
51227;BME280;42714;48.260;10.980;2023-05-23T15:48:25;969.3;;;22.7;62.5
51227;BME280;42714;48.260;10.980;2023-05-23T15:53:26;969.4;;;22.8;66.1
51227;BME280;42714;48.260;10.980;2023-05-23T15:58:27;969.4;;;22.5;66.2
51227;BME280;42714;48.260;10.980;2023-05-23T16:03:28;969.4;;;22.0;69.9
51227;BME280;42714;48.260;10.980;2023-05-23T16:08:29;969.5;;;21.7;71.8
51227;BME280;42714;48.260;10.980;2023-05-23T16:13:30;969.5;;;21.6;73.3
51227;BME280;42714;48.260;10.980;2023-05-23T16:18:32;969.7;;;21.8;71.2
51227;BME280;42714;48.260;10.980;2023-05-23T16:23:32;969.6;;;21.8;67.8
51227;BME280;42714;48.260;10.980;2023-05-23T16:28:33;969.7;;;21.9;67.5
51227;BME280;42714;48.260;10.980;2023-05-23T16:33:35;969.6;;;22.1;58.4
51227;BME280;42714;48.260;10.980;2023-05-23T16:38:35;969.6;;;21.6;61.4
51227;BME280;42714;48.260;10.980;2023-05-23T16:43:36;969.6;;;21.7;60.4
51227;BME280;42714;48.260;10.980;2023-05-23T16:48:37;969.7;;;21.7;60.2
51227;BME280;42714;48.260;10.980;2023-05-23T16:53:38;969.7;;;21.6;61.8
51227;BME280;42714;48.260;10.980;2023-05-23T16:58:39;969.8;;;21.4;64.2
51227;BME280;42714;48.260;10.980;2023-05-23T17:03:40;969.8;;;21.3;62.8
51227;BME280;42714;48.260;10.980;2023-05-23T17:08:41;969.8;;;21.0;58.8
51227;BME280;42714;48.260;10.980;2023-05-23T17:13:42;969.9;;;20.8;65.4
51227;BME280;42714;48.260;10.980;2023-05-23T17:18:43;969.9;;;20.6;67.9
51227;BME280;42714;48.260;10.980;2023-05-23T17:23:44;969.9;;;20.4;71.5
51227;BME280;42714;48.260;10.980;2023-05-23T17:28:45;969.9;;;20.3;73.2
51227;BME280;42714;48.260;10.980;2023-05-23T17:33:47;969.9;;;20.2;76.6
51227;BME280;42714;48.260;10.980;2023-05-23T17:38:48;969.9;;;20.0;77.8
51227;BME280;42714;48.260;10.980;2023-05-23T17:43:49;969.9;;;20.0;77.9
51227;BME280;42714;48.260;10.980;2023-05-23T17:48:50;969.9;;;19.9;80.2
51227;BME280;42714;48.260;10.980;2023-05-23T17:53:51;969.9;;;19.9;80.3
51227;BME280;42714;48.260;10.980;2023-05-23T17:58:52;969.9;;;19.9;81.9
51227;BME280;42714;48.260;10.980;2023-05-23T18:03:53;970.0;;;19.8;84.7
51227;BME280;42714;48.260;10.980;2023-05-23T18:08:54;969.9;;;19.7;85.3
51227;BME280;42714;48.260;10.980;2023-05-23T18:13:55;970.0;;;19.5;88.7
51227;BME280;42714;48.260;10.980;2023-05-23T18:18:58;970.0;;;19.4;91.8
51227;BME280;42714;48.260;10.980;2023-05-23T18:23:59;970.0;;;19.2;96.6
51227;BME280;42714;48.260;10.980;2023-05-23T18:29:00;970.1;;;19.1;99.3
51227;BME280;42714;48.260;10.980;2023-05-23T18:34:01;970.2;;;19.0;100.0
51227;BME280;42714;48.260;10.980;2023-05-23T18:39:02;970.2;;;18.8;100.0
51227;BME280;42714;48.260;10.980;2023-05-23T18:44:03;970.3;;;18.8;100.0
51227;BME280;42714;48.260;10.980;2023-05-23T18:49:04;970.3;;;18.8;100.0
51227;BME280;42714;48.260;10.980;2023-05-23T18:54:05;970.4;;;18.6;100.0
51227;BME280;42714;48.260;10.980;2023-05-23T18:59:06;970.6;;;18.5;100.0
51227;BME280;42714;48.260;10.980;2023-05-23T19:04:07;970.6;;;18.5;100.0
51227;BME280;42714;48.260;10.980;2023-05-23T19:09:08;970.7;;;18.4;100.0
51227;BME280;42714;48.260;10.980;2023-05-23T19:14:09;970.8;;;18.3;100.0
51227;BME280;42714;48.260;10.980;2023-05-23T19:19:10;970.9;;;18.2;100.0
51227;BME280;42714;48.260;10.980;2023-05-23T19:24:11;970.9;;;18.3;100.0
51227;BME280;42714;48.260;10.980;2023-05-23T19:29:12;970.9;;;18.0;100.0
51227;BME280;42714;48.260;10.980;2023-05-23T19:34:13;970.9;;;18.0;100.0
51227;BME280;42714;48.260;10.980;2023-05-23T19:39:14;971.0;;;17.9;100.0
51227;BME280;42714;48.260;10.980;2023-05-23T19:44:15;971.0;;;17.9;100.0
51227;BME280;42714;48.260;10.980;2023-05-23T19:49:16;971.1;;;17.8;100.0
51227;BME280;42714;48.260;10.980;2023-05-23T19:54:17;971.1;;;17.7;100.0
51227;BME280;42714;48.260;10.980;2023-05-23T19:59:18;971.2;;;17.6;100.0
51227;BME280;42714;48.260;10.980;2023-05-23T20:04:19;971.2;;;17.5;100.0
51227;BME280;42714;48.260;10.980;2023-05-23T20:09:20;971.3;;;17.2;100.0
51227;BME280;42714;48.260;10.980;2023-05-23T20:14:21;971.4;;;17.0;100.0
51227;BME280;42714;48.260;10.980;2023-05-23T20:19:22;971.4;;;16.8;100.0
51227;BME280;42714;48.260;10.980;2023-05-23T20:24:23;971.5;;;16.6;100.0
51227;BME280;42714;48.260;10.980;2023-05-23T20:29:24;971.5;;;16.5;100.0
51227;BME280;42714;48.260;10.980;2023-05-23T20:34:25;971.5;;;16.4;100.0
51227;BME280;42714;48.260;10.980;2023-05-23T20:39:26;971.6;;;16.3;100.0
51227;BME280;42714;48.260;10.980;2023-05-23T20:44:27;971.5;;;16.2;100.0
51227;BME280;42714;48.260;10.980;2023-05-23T20:49:28;971.6;;;16.0;100.0
51227;BME280;42714;48.260;10.980;2023-05-23T20:54:29;971.6;;;15.9;100.0
51227;BME280;42714;48.260;10.980;2023-05-23T20:59:30;971.6;;;15.7;100.0
51227;BME280;42714;48.260;10.980;2023-05-23T21:04:31;971.7;;;15.5;100.0
51227;BME280;42714;48.260;10.980;2023-05-23T21:09:32;971.8;;;15.6;100.0
51227;BME280;42714;48.260;10.980;2023-05-23T21:14:33;971.9;;;15.7;100.0
51227;BME280;42714;48.260;10.980;2023-05-23T21:19:34;971.9;;;15.7;100.0
51227;BME280;42714;48.260;10.980;2023-05-23T21:24:35;971.9;;;15.7;100.0
51227;BME280;42714;48.260;10.980;2023-05-23T21:29:36;972.0;;;15.6;100.0
51227;BME280;42714;48.260;10.980;2023-05-23T21:34:37;971.9;;;15.6;100.0
51227;BME280;42714;48.260;10.980;2023-05-23T21:39:38;971.9;;;15.5;100.0
51227;BME280;42714;48.260;10.980;2023-05-23T21:44:39;972.0;;;15.5;100.0
51227;BME280;42714;48.260;10.980;2023-05-23T21:49:40;972.0;;;15.4;100.0
51227;BME280;42714;48.260;10.980;2023-05-23T21:54:41;972.1;;;15.4;100.0
51227;BME280;42714;48.260;10.980;2023-05-23T21:59:42;972.1;;;15.2;100.0
51227;BME280;42714;48.260;10.980;2023-05-23T22:04:43;972.2;;;15.1;100.0
51227;BME280;42714;48.260;10.980;2023-05-23T22:09:44;972.2;;;14.9;100.0
51227;BME280;42714;48.260;10.980;2023-05-23T22:14:45;972.2;;;14.9;100.0
51227;BME280;42714;48.260;10.980;2023-05-23T22:19:46;972.2;;;14.8;100.0
51227;BME280;42714;48.260;10.980;2023-05-23T22:24:47;972.1;;;14.8;100.0
51227;BME280;42714;48.260;10.980;2023-05-23T22:29:48;972.1;;;14.8;100.0
51227;BME280;42714;48.260;10.980;2023-05-23T22:34:49;972.2;;;14.8;100.0
51227;BME280;42714;48.260;10.980;2023-05-23T22:39:50;972.1;;;14.8;100.0
51227;BME280;42714;48.260;10.980;2023-05-23T22:44:51;972.1;;;14.6;100.0
51227;BME280;42714;48.260;10.980;2023-05-23T22:49:52;972.1;;;14.5;100.0
51227;BME280;42714;48.260;10.980;2023-05-23T22:54:53;972.1;;;14.4;100.0
51227;BME280;42714;48.260;10.980;2023-05-23T22:59:54;972.1;;;14.3;100.0
51227;BME280;42714;48.260;10.980;2023-05-23T23:04:55;972.1;;;14.1;100.0
51227;BME280;42714;48.260;10.980;2023-05-23T23:09:56;972.1;;;13.9;100.0
51227;BME280;42714;48.260;10.980;2023-05-23T23:14:57;972.2;;;13.9;100.0
51227;BME280;42714;48.260;10.980;2023-05-23T23:19:58;972.1;;;14.0;100.0
51227;BME280;42714;48.260;10.980;2023-05-23T23:24:59;972.1;;;14.1;100.0
51227;BME280;42714;48.260;10.980;2023-05-23T23:30:00;972.2;;;14.1;100.0
51227;BME280;42714;48.260;10.980;2023-05-23T23:35:01;972.1;;;14.3;100.0
51227;BME280;42714;48.260;10.980;2023-05-23T23:40:02;972.1;;;14.4;100.0
51227;BME280;42714;48.260;10.980;2023-05-23T23:45:03;972.1;;;14.5;100.0
51227;BME280;42714;48.260;10.980;2023-05-23T23:55:05;972.1;;;14.6;100.0
